createdAt,value
2017-12-16T00:00:57.491Z,96602.66
2017-12-16T00:02:00.444Z,96602.02
2017-12-16T00:03:03.299Z,96606.36
2017-12-16T00:04:06.241Z,96598.44
2017-12-16T00:05:09.571Z,96605.36
2017-12-16T00:06:13.077Z,96600.78
2017-12-16T00:07:16.059Z,96603.48
2017-12-16T00:08:19.010Z,96600.66
2017-12-16T00:09:21.995Z,96606.32
2017-12-16T00:10:24.943Z,96603.63
2017-12-16T00:11:28.343Z,96607.84
2017-12-16T00:12:31.297Z,96609.25
2017-12-16T00:13:34.282Z,96610.32
2017-12-16T00:14:38.159Z,96610.23
2017-12-16T00:15:41.199Z,96617.81
2017-12-16T00:16:44.178Z,96613.58
2017-12-16T00:17:47.701Z,96611.44
2017-12-16T00:18:50.642Z,96614.82
2017-12-16T00:19:53.547Z,96618.26
2017-12-16T00:20:56.475Z,96618.28
2017-12-16T00:21:59.418Z,96621.55
2017-12-16T00:23:02.356Z,96619.64
2017-12-16T00:24:05.625Z,96621.73
2017-12-16T00:25:08.784Z,96615.70
2017-12-16T00:26:11.816Z,96621.81
2017-12-16T00:27:14.816Z,96618.65
2017-12-16T00:28:17.770Z,96621.70
2017-12-16T00:29:20.766Z,96620.91
2017-12-16T00:30:24.119Z,96622.12
2017-12-16T00:31:27.074Z,96631.02
2017-12-16T00:32:30.075Z,96623.11
2017-12-16T00:33:33.018Z,96623.94
2017-12-16T00:34:35.947Z,96627.05
2017-12-16T00:35:38.913Z,96627.53
2017-12-16T00:36:42.167Z,96620.78
2017-12-16T00:37:45.143Z,96627.89
2017-12-16T00:38:48.059Z,96628.69
2017-12-16T00:39:51.043Z,96627.30
2017-12-16T00:40:53.999Z,96629.45
2017-12-16T00:41:57.116Z,96629.22
2017-12-16T00:43:00.478Z,96625.95
2017-12-16T00:44:03.429Z,96631.56
2017-12-16T00:45:08.560Z,96628.83
2017-12-16T00:46:11.519Z,96639.99
2017-12-16T00:47:14.498Z,96638.23
2017-12-16T00:48:17.452Z,96642.84
2017-12-16T00:49:20.717Z,96645.16
2017-12-16T00:50:23.613Z,96649.98
2017-12-16T00:51:26.490Z,96650.56
2017-12-16T00:52:29.454Z,96645.55
2017-12-16T00:53:32.385Z,96655.53
2017-12-16T00:54:35.297Z,96652.69
2017-12-16T00:55:38.626Z,96654.06
2017-12-16T00:56:41.600Z,96658.50
2017-12-16T00:57:44.530Z,96660.25
2017-12-16T00:58:47.440Z,96657.38
2017-12-16T00:59:50.417Z,96660.88
2017-12-16T01:00:53.348Z,96664.11
2017-12-16T01:01:56.748Z,96662.91
2017-12-16T01:02:59.649Z,96669.44
2017-12-16T01:04:02.630Z,96670.94
2017-12-16T01:05:05.536Z,96673.81
2017-12-16T01:06:08.817Z,96675.75
2017-12-16T01:07:11.705Z,96681.95
2017-12-16T01:08:15.083Z,96686.53
2017-12-16T01:09:18.053Z,96683.45
2017-12-16T01:10:20.981Z,96690.36
2017-12-16T01:11:23.979Z,96690.89
2017-12-16T01:12:26.937Z,96698.33
2017-12-16T01:13:29.792Z,96698.18
2017-12-16T01:14:33.700Z,96696.85
2017-12-16T01:15:37.622Z,96696.30
2017-12-16T01:16:40.486Z,96696.51
2017-12-16T01:17:43.383Z,96699.39
2017-12-16T01:18:46.293Z,96698.88
2017-12-16T01:19:49.117Z,96708.17
2017-12-16T01:20:52.405Z,96705.09
2017-12-16T01:21:55.250Z,96707.78
2017-12-16T01:22:58.207Z,96711.05
2017-12-16T01:24:01.108Z,96712.60
2017-12-16T01:25:04.091Z,96710.35
2017-12-16T01:26:07.081Z,96710.38
2017-12-16T01:27:10.808Z,96714.52
2017-12-16T01:28:13.821Z,96716.09
2017-12-16T01:29:16.810Z,96712.51
2017-12-16T01:30:19.774Z,96717.29
2017-12-16T01:31:22.728Z,96726.58
2017-12-16T01:32:26.446Z,96722.27
2017-12-16T01:33:29.830Z,96721.64
2017-12-16T01:34:32.792Z,96724.83
2017-12-16T01:35:36.251Z,96727.30
2017-12-16T01:36:39.230Z,96722.88
2017-12-16T01:37:42.305Z,96729.98
2017-12-16T01:38:45.305Z,96727.62
2017-12-16T01:39:48.260Z,96734.80
2017-12-16T01:40:51.264Z,96738.29
2017-12-16T01:41:54.187Z,96737.18
2017-12-16T01:42:58.100Z,96748.45
2017-12-16T01:44:01.063Z,96739.61
2017-12-16T01:45:04.309Z,96743.33
2017-12-16T01:46:07.291Z,96743.22
2017-12-16T01:47:10.261Z,96740.83
2017-12-16T01:48:13.413Z,96742.36
2017-12-16T01:49:16.469Z,96747.37
2017-12-16T01:50:19.420Z,96743.23
2017-12-16T01:51:22.834Z,96745.78
2017-12-16T01:52:25.859Z,96744.55
2017-12-16T01:53:28.784Z,96747.85
2017-12-16T01:54:31.695Z,96748.16
2017-12-16T01:55:34.635Z,96753.78
2017-12-16T01:56:37.584Z,96750.53
2017-12-16T01:57:40.846Z,96756.56
2017-12-16T01:58:43.806Z,96760.37
2017-12-16T01:59:46.816Z,96764.33
2017-12-16T02:00:49.812Z,96761.37
2017-12-16T02:01:52.747Z,96767.55
2017-12-16T02:02:56.152Z,96770.30
2017-12-16T02:03:59.712Z,96774.41
2017-12-16T02:05:02.765Z,96772.50
2017-12-16T02:06:05.724Z,96773.36
2017-12-16T02:07:08.841Z,96770.55
2017-12-16T02:08:11.798Z,96772.40
2017-12-16T02:09:14.735Z,96773.72
2017-12-16T02:10:18.266Z,96773.54
2017-12-16T02:11:21.217Z,96779.23
2017-12-16T02:12:24.170Z,96776.61
2017-12-16T02:13:27.099Z,96788.95
2017-12-16T02:14:30.160Z,96787.63
2017-12-16T02:15:33.070Z,96784.08
2017-12-16T02:16:36.419Z,96788.18
2017-12-16T02:17:39.412Z,96786.13
2017-12-16T02:18:42.356Z,96785.77
2017-12-16T02:19:45.317Z,96786.86
2017-12-16T02:20:48.371Z,96784.02
2017-12-16T02:21:51.335Z,96783.42
2017-12-16T02:22:54.751Z,96780.79
2017-12-16T02:23:57.707Z,96788.28
2017-12-16T02:25:00.633Z,96783.47
2017-12-16T02:26:03.599Z,96781.99
2017-12-16T02:27:06.631Z,96774.00
2017-12-16T02:28:09.681Z,96781.86
2017-12-16T02:29:12.978Z,96778.38
2017-12-16T02:30:15.955Z,96778.02
2017-12-16T02:31:18.881Z,96783.01
2017-12-16T02:32:21.867Z,96785.28
2017-12-16T02:33:24.812Z,96783.28
2017-12-16T02:34:27.922Z,96786.72
2017-12-16T02:35:31.411Z,96786.69
2017-12-16T02:36:34.480Z,96785.63
2017-12-16T02:37:37.445Z,96784.77
2017-12-16T02:38:40.404Z,96779.09
2017-12-16T02:39:43.429Z,96785.13
2017-12-16T02:40:46.388Z,96788.34
2017-12-16T02:41:49.655Z,96791.47
2017-12-16T02:42:52.553Z,96790.20
2017-12-16T02:43:55.674Z,96790.57
2017-12-16T02:44:58.750Z,96788.15
2017-12-16T02:46:01.804Z,96790.78
2017-12-16T02:47:04.756Z,96794.73
2017-12-16T02:48:08.434Z,96793.53
2017-12-16T02:49:11.449Z,96789.88
2017-12-16T02:50:14.415Z,96792.17
2017-12-16T02:51:17.445Z,96797.40
2017-12-16T02:52:20.433Z,96802.06
2017-12-16T02:53:23.463Z,96801.45
2017-12-16T02:54:26.845Z,96795.21
2017-12-16T02:55:29.813Z,96797.25
2017-12-16T02:56:32.737Z,96799.13
2017-12-16T02:57:35.717Z,96798.73
2017-12-16T02:58:38.643Z,96796.88
2017-12-16T02:59:41.604Z,96794.53
2017-12-16T03:00:44.822Z,96801.05
2017-12-16T03:01:47.791Z,96804.89
2017-12-16T03:02:50.768Z,96806.80
2017-12-16T03:03:53.777Z,96807.97
2017-12-16T03:04:56.786Z,96809.33
2017-12-16T03:05:59.739Z,96809.98
2017-12-16T03:07:03.187Z,96814.00
2017-12-16T03:08:08.236Z,96813.66
2017-12-16T03:09:13.924Z,96819.58
2017-12-16T03:10:17.271Z,96817.39
2017-12-16T03:11:20.301Z,96813.30
2017-12-16T03:12:23.221Z,96821.15
2017-12-16T03:13:26.454Z,96817.53
2017-12-16T03:14:29.383Z,96813.13
2017-12-16T03:15:32.325Z,96817.91
2017-12-16T03:16:35.274Z,96820.69
2017-12-16T03:17:38.283Z,96822.70
2017-12-16T03:18:41.256Z,96823.02
2017-12-16T03:19:44.627Z,96827.28
2017-12-16T03:20:47.572Z,96821.79
2017-12-16T03:21:50.542Z,96821.53
2017-12-16T03:22:53.479Z,96821.69
2017-12-16T03:23:56.438Z,96815.35
2017-12-16T03:24:59.404Z,96827.29
2017-12-16T03:26:02.373Z,96821.20
2017-12-16T03:27:05.356Z,96820.67
2017-12-16T03:28:08.314Z,96819.78
2017-12-16T03:29:11.217Z,96815.75
2017-12-16T03:30:14.192Z,96821.94
2017-12-16T03:31:17.676Z,96820.64
2017-12-16T03:32:20.613Z,96825.53
2017-12-16T03:33:24.133Z,96823.86
2017-12-16T03:34:27.072Z,96829.27
2017-12-16T03:35:30.028Z,96833.03
2017-12-16T03:36:32.953Z,96834.11
2017-12-16T03:37:36.332Z,96829.20
2017-12-16T03:38:39.267Z,96834.17
2017-12-16T03:39:43.091Z,96833.98
2017-12-16T03:40:46.079Z,96828.90
2017-12-16T03:41:49.077Z,96834.62
2017-12-16T03:42:52.156Z,96835.99
2017-12-16T03:43:55.592Z,96831.66
2017-12-16T03:44:58.600Z,96836.84
2017-12-16T03:46:01.575Z,96838.72
2017-12-16T03:47:04.537Z,96839.63
2017-12-16T03:48:07.521Z,96843.93
2017-12-16T03:49:10.523Z,96845.78
2017-12-16T03:50:13.510Z,96840.69
2017-12-16T03:51:16.486Z,96851.19
2017-12-16T03:52:19.419Z,96847.84
2017-12-16T03:53:22.420Z,96852.91
2017-12-16T03:54:25.362Z,96850.91
2017-12-16T03:55:28.672Z,96860.57
2017-12-16T03:56:31.637Z,96854.81
2017-12-16T03:57:34.531Z,96856.91
2017-12-16T03:58:37.584Z,96861.34
2017-12-16T03:59:40.535Z,96859.03
2017-12-16T04:00:43.507Z,96857.58
2017-12-16T04:01:46.521Z,96854.67
2017-12-16T04:02:49.475Z,96860.24
2017-12-16T04:03:52.430Z,96866.75
2017-12-16T04:04:55.383Z,96862.00
2017-12-16T04:05:58.816Z,96862.41
2017-12-16T04:07:01.784Z,96868.48
2017-12-16T04:08:05.113Z,96870.70
2017-12-16T04:09:08.051Z,96869.61
2017-12-16T04:10:10.956Z,96871.76
2017-12-16T04:11:13.896Z,96869.80
2017-12-16T04:12:16.873Z,96875.96
2017-12-16T04:13:19.824Z,96873.45
2017-12-16T04:14:23.173Z,96874.83
2017-12-16T04:15:26.116Z,96873.98
2017-12-16T04:16:29.042Z,96875.67
2017-12-16T04:17:31.992Z,96877.16
2017-12-16T04:18:35.010Z,96878.26
2017-12-16T04:19:37.972Z,96878.42
2017-12-16T04:20:41.303Z,96878.80
2017-12-16T04:21:44.249Z,96879.53
2017-12-16T04:22:47.258Z,96882.55
2017-12-16T04:23:51.703Z,96878.48
2017-12-16T04:24:54.708Z,96882.95
2017-12-16T04:25:57.647Z,96885.55
2017-12-16T04:27:01.171Z,96879.77
2017-12-16T04:28:04.153Z,96885.69
2017-12-16T04:29:07.093Z,96884.39
2017-12-16T04:30:10.045Z,96883.59
2017-12-16T04:31:13.018Z,96886.99
2017-12-16T04:32:15.962Z,96885.69
2017-12-16T04:33:18.906Z,96884.55
2017-12-16T04:34:21.865Z,96885.41
2017-12-16T04:35:24.798Z,96886.67
2017-12-16T04:36:27.743Z,96885.70
2017-12-16T04:37:30.671Z,96888.16
2017-12-16T04:38:33.975Z,96890.30
2017-12-16T04:39:37.144Z,96892.60
2017-12-16T04:40:40.140Z,96886.55
2017-12-16T04:41:43.117Z,96885.64
2017-12-16T04:42:46.127Z,96888.35
2017-12-16T04:43:49.075Z,96887.97
2017-12-16T04:44:52.495Z,96893.66
2017-12-16T04:45:55.431Z,96892.89
2017-12-16T04:46:58.403Z,96891.70
2017-12-16T04:48:01.354Z,96890.09
2017-12-16T04:49:04.211Z,96891.19
2017-12-16T04:50:07.081Z,96892.73
2017-12-16T04:51:10.344Z,96896.00
2017-12-16T04:52:13.280Z,96895.39
2017-12-16T04:53:16.238Z,96904.43
2017-12-16T04:54:19.242Z,96901.13
2017-12-16T04:55:23.011Z,96903.23
2017-12-16T04:56:25.934Z,96897.65
2017-12-16T04:57:29.204Z,96901.48
2017-12-16T04:58:32.225Z,96905.68
2017-12-16T04:59:35.219Z,96905.27
2017-12-16T05:00:38.312Z,96903.72
2017-12-16T05:01:41.297Z,96902.49
2017-12-16T05:02:44.283Z,96905.04
2017-12-16T05:03:47.670Z,96909.84
2017-12-16T05:04:50.642Z,96913.98
2017-12-16T05:05:53.584Z,96907.92
2017-12-16T05:06:56.617Z,96912.70
2017-12-16T05:07:59.577Z,96913.61
2017-12-16T05:09:02.597Z,96914.36
2017-12-16T05:10:05.824Z,96912.16
2017-12-16T05:11:08.763Z,96917.95
2017-12-16T05:12:11.767Z,96917.37
2017-12-16T05:13:15.843Z,96916.60
2017-12-16T05:14:18.803Z,96915.54
2017-12-16T05:15:21.820Z,96922.56
2017-12-16T05:16:25.094Z,96920.84
2017-12-16T05:17:28.115Z,96920.16
2017-12-16T05:18:31.055Z,96924.28
2017-12-16T05:19:33.994Z,96927.74
2017-12-16T05:20:37.023Z,96915.70
2017-12-16T05:21:39.981Z,96929.87
2017-12-16T05:22:43.455Z,96923.23
2017-12-16T05:23:46.468Z,96918.41
2017-12-16T05:24:49.588Z,96919.09
2017-12-16T05:25:52.544Z,96916.05
2017-12-16T05:26:55.664Z,96920.84
2017-12-16T05:27:58.622Z,96922.22
2017-12-16T05:29:02.119Z,96920.66
2017-12-16T05:30:05.067Z,96919.59
2017-12-16T05:31:08.098Z,96925.42
2017-12-16T05:32:11.063Z,96927.49
2017-12-16T05:33:14.057Z,96930.83
2017-12-16T05:34:17.046Z,96929.10
2017-12-16T05:35:20.319Z,96931.75
2017-12-16T05:36:23.325Z,96932.15
2017-12-16T05:37:26.261Z,96935.58
2017-12-16T05:38:29.224Z,96934.41
2017-12-16T05:39:32.155Z,96941.75
2017-12-16T05:40:35.098Z,96941.00
2017-12-16T05:41:38.361Z,96941.25
2017-12-16T05:42:41.380Z,96937.45
2017-12-16T05:43:44.332Z,96944.03
2017-12-16T05:44:47.252Z,96946.03
2017-12-16T05:45:50.174Z,96947.05
2017-12-16T05:46:53.052Z,96946.00
2017-12-16T05:47:56.411Z,96950.89
2017-12-16T05:48:59.361Z,96951.16
2017-12-16T05:50:02.308Z,96956.25
2017-12-16T05:51:05.256Z,96951.05
2017-12-16T05:52:08.233Z,96957.34
2017-12-16T05:53:11.167Z,96966.20
2017-12-16T05:54:14.517Z,96960.78
2017-12-16T05:55:17.463Z,96966.92
2017-12-16T05:56:20.435Z,96959.28
2017-12-16T05:57:23.432Z,96962.28
2017-12-16T05:58:26.383Z,96964.41
2017-12-16T05:59:29.329Z,96970.97
2017-12-16T06:00:32.793Z,96970.48
2017-12-16T06:01:35.751Z,96969.77
2017-12-16T06:02:38.732Z,96964.10
2017-12-16T06:03:41.695Z,96965.70
2017-12-16T06:04:44.681Z,96971.19
2017-12-16T06:05:47.664Z,96971.60
2017-12-16T06:06:51.063Z,96975.83
2017-12-16T06:07:54.008Z,96976.69
2017-12-16T06:08:57.773Z,96976.61
2017-12-16T06:10:00.738Z,96977.95
2017-12-16T06:11:03.704Z,96976.86
2017-12-16T06:12:06.655Z,96978.94
2017-12-16T06:13:10.107Z,96984.29
2017-12-16T06:14:13.465Z,96986.91
2017-12-16T06:15:16.454Z,96986.10
2017-12-16T06:16:19.430Z,96989.95
2017-12-16T06:17:22.375Z,96992.73
2017-12-16T06:18:25.695Z,96987.23
2017-12-16T06:19:29.050Z,96999.53
2017-12-16T06:20:32.519Z,96993.34
2017-12-16T06:21:35.520Z,97000.44
2017-12-16T06:22:38.518Z,96999.20
2017-12-16T06:23:41.512Z,97001.06
2017-12-16T06:24:44.935Z,96999.83
2017-12-16T06:25:47.892Z,97001.96
2017-12-16T06:26:51.015Z,97004.36
2017-12-16T06:27:53.971Z,97007.93
2017-12-16T06:28:56.895Z,97007.52
2017-12-16T06:29:59.855Z,97006.55
2017-12-16T06:31:04.722Z,97012.25
2017-12-16T06:32:07.705Z,97008.74
2017-12-16T06:33:10.605Z,97013.00
2017-12-16T06:34:13.698Z,97017.97
2017-12-16T06:35:16.706Z,97014.05
2017-12-16T06:36:19.619Z,97018.45
2017-12-16T06:37:22.962Z,97015.96
2017-12-16T06:38:25.910Z,97015.77
2017-12-16T06:39:28.907Z,97010.54
2017-12-16T06:40:32.022Z,97018.15
2017-12-16T06:41:34.942Z,97018.07
2017-12-16T06:42:37.958Z,97021.57
2017-12-16T06:43:41.157Z,97023.44
2017-12-16T06:44:44.177Z,97024.20
2017-12-16T06:45:47.182Z,97025.07
2017-12-16T06:46:50.158Z,97020.22
2017-12-16T06:47:53.150Z,97024.97
2017-12-16T06:48:56.137Z,97028.83
2017-12-16T06:49:59.540Z,97030.84
2017-12-16T06:51:02.502Z,97025.98
2017-12-16T06:52:05.464Z,97025.41
2017-12-16T06:53:08.381Z,97032.89
2017-12-16T06:54:11.337Z,97034.98
2017-12-16T06:55:14.374Z,97031.11
2017-12-16T06:56:17.755Z,97035.11
2017-12-16T06:57:20.766Z,97035.55
2017-12-16T06:58:23.732Z,97033.03
2017-12-16T06:59:26.749Z,97032.66
2017-12-16T07:00:29.652Z,97039.03
2017-12-16T07:01:32.581Z,97035.05
2017-12-16T07:02:36.239Z,97036.95
2017-12-16T07:03:40.339Z,97038.36
2017-12-16T07:04:43.267Z,97047.41
2017-12-16T07:05:46.256Z,97048.52
2017-12-16T07:06:49.203Z,97046.64
2017-12-16T07:07:52.243Z,97046.30
2017-12-16T07:08:55.534Z,97043.12
2017-12-16T07:09:58.511Z,97046.95
2017-12-16T07:11:01.815Z,97045.83
2017-12-16T07:12:04.798Z,97043.91
2017-12-16T07:13:07.756Z,97054.20
2017-12-16T07:14:10.748Z,97047.45
2017-12-16T07:15:14.181Z,97050.46
2017-12-16T07:16:17.192Z,97048.06
2017-12-16T07:17:20.121Z,97050.67
2017-12-16T07:18:23.110Z,97056.52
2017-12-16T07:19:26.074Z,97060.52
2017-12-16T07:20:29.997Z,97060.23
2017-12-16T07:21:33.461Z,97060.73
2017-12-16T07:22:36.442Z,97060.09
2017-12-16T07:23:39.363Z,97068.20
2017-12-16T07:24:42.336Z,97067.32
2017-12-16T07:25:45.303Z,97073.59
2017-12-16T07:26:48.308Z,97070.22
2017-12-16T07:27:51.746Z,97072.81
2017-12-16T07:28:54.672Z,97078.41
2017-12-16T07:29:57.628Z,97077.94
2017-12-16T07:31:00.828Z,97074.92
2017-12-16T07:32:03.909Z,97075.41
2017-12-16T07:33:06.878Z,97076.68
2017-12-16T07:34:10.214Z,97074.18
2017-12-16T07:35:13.208Z,97077.56
2017-12-16T07:36:16.270Z,97087.30
2017-12-16T07:37:19.278Z,97085.94
2017-12-16T07:38:22.227Z,97086.68
2017-12-16T07:39:25.320Z,97093.64
2017-12-16T07:40:28.712Z,97097.14
2017-12-16T07:41:31.683Z,97090.48
2017-12-16T07:42:34.692Z,97090.14
2017-12-16T07:43:37.678Z,97102.92
2017-12-16T07:44:40.616Z,97102.98
2017-12-16T07:45:44.538Z,97099.52
2017-12-16T07:46:47.943Z,97099.83
2017-12-16T07:47:51.660Z,97110.25
2017-12-16T07:48:55.195Z,97107.73
2017-12-16T07:49:58.142Z,97117.16
2017-12-16T07:51:01.960Z,97113.59
2017-12-16T07:52:04.914Z,97115.92
2017-12-16T07:53:08.338Z,97112.13
2017-12-16T07:54:11.446Z,97120.22
2017-12-16T07:55:16.264Z,97122.13
2017-12-16T07:56:19.264Z,97120.58
2017-12-16T07:57:22.123Z,97122.95
2017-12-16T07:58:25.134Z,97118.50
2017-12-16T07:59:28.617Z,97124.21
2017-12-16T08:00:31.571Z,97124.95
2017-12-16T08:01:34.610Z,97129.00
2017-12-16T08:02:37.586Z,97123.98
2017-12-16T08:03:40.481Z,97126.03
2017-12-16T08:04:43.366Z,97133.63
2017-12-16T08:05:46.812Z,97131.73
2017-12-16T08:06:49.816Z,97126.16
2017-12-16T08:07:52.755Z,97129.00
2017-12-16T08:08:55.716Z,97127.87
2017-12-16T08:09:58.709Z,97134.92
2017-12-16T08:11:01.703Z,97133.35
2017-12-16T08:12:05.094Z,97136.61
2017-12-16T08:13:08.040Z,97139.33
2017-12-16T08:14:11.087Z,97132.50
2017-12-16T08:15:14.044Z,97141.83
2017-12-16T08:16:17.035Z,97143.38
2017-12-16T08:17:20.128Z,97143.94
2017-12-16T08:18:23.551Z,97146.45
2017-12-16T08:19:26.513Z,97149.13
2017-12-16T08:20:29.539Z,97139.91
2017-12-16T08:21:32.564Z,97147.70
2017-12-16T08:22:36.142Z,97144.72
2017-12-16T08:23:39.091Z,97148.51
2017-12-16T08:24:42.620Z,97150.53
2017-12-16T08:25:45.589Z,97153.02
2017-12-16T08:26:48.616Z,97156.87
2017-12-16T08:27:52.145Z,97150.64
2017-12-16T08:28:55.138Z,97156.57
2017-12-16T08:29:58.499Z,97157.70
2017-12-16T08:31:01.503Z,97150.63
2017-12-16T08:32:04.494Z,97160.27
2017-12-16T08:33:07.469Z,97160.64
2017-12-16T08:34:10.442Z,97162.39
2017-12-16T08:35:13.471Z,97160.41
2017-12-16T08:36:17.994Z,97161.38
2017-12-16T08:37:20.978Z,97162.81
2017-12-16T08:38:24.049Z,97169.98
2017-12-16T08:39:27.180Z,97161.20
2017-12-16T08:40:30.168Z,97171.84
2017-12-16T08:41:33.072Z,97168.05
2017-12-16T08:42:36.370Z,97178.02
2017-12-16T08:43:39.421Z,97178.27
2017-12-16T08:44:42.446Z,97178.06
2017-12-16T08:45:45.403Z,97185.86
2017-12-16T08:46:48.392Z,97186.44
2017-12-16T08:47:51.410Z,97190.35
2017-12-16T08:48:54.693Z,97195.30
2017-12-16T08:49:57.773Z,97192.84
2017-12-16T08:51:00.692Z,97204.98
2017-12-16T08:52:03.628Z,97208.30
2017-12-16T08:53:06.656Z,97203.84
2017-12-16T08:54:09.583Z,97210.89
2017-12-16T08:55:12.876Z,97208.25
2017-12-16T08:56:15.779Z,97213.02
2017-12-16T08:57:18.791Z,97210.91
2017-12-16T08:58:21.779Z,97212.88
2017-12-16T08:59:24.745Z,97218.80
2017-12-16T09:00:27.697Z,97218.36
2017-12-16T09:01:30.728Z,97215.96
2017-12-16T09:02:33.742Z,97211.87
2017-12-16T09:03:36.805Z,97222.98
2017-12-16T09:04:39.791Z,97218.22
2017-12-16T09:05:42.888Z,97222.47
2017-12-16T09:06:46.181Z,97230.55
2017-12-16T09:07:49.169Z,97231.84
2017-12-16T09:08:53.578Z,97231.77
2017-12-16T09:09:56.521Z,97233.52
2017-12-16T09:10:59.506Z,97233.39
2017-12-16T09:12:02.372Z,97234.21
2017-12-16T09:13:05.689Z,97233.40
2017-12-16T09:14:08.747Z,97235.38
2017-12-16T09:15:11.703Z,97241.16
2017-12-16T09:16:14.707Z,97246.69
2017-12-16T09:17:17.697Z,97244.77
2017-12-16T09:18:20.739Z,97244.91
2017-12-16T09:19:24.111Z,97253.62
2017-12-16T09:20:27.193Z,97253.39
2017-12-16T09:21:30.175Z,97251.70
2017-12-16T09:22:33.137Z,97257.09
2017-12-16T09:23:36.155Z,97252.42
2017-12-16T09:24:40.026Z,97254.77
2017-12-16T09:25:43.454Z,97256.07
2017-12-16T09:26:46.451Z,97254.92
2017-12-16T09:27:49.427Z,97260.36
2017-12-16T09:28:52.417Z,97260.11
2017-12-16T09:29:55.367Z,97262.63
2017-12-16T09:30:58.363Z,97272.84
2017-12-16T09:32:01.869Z,97266.48
2017-12-16T09:33:04.912Z,97272.09
2017-12-16T09:34:07.894Z,97272.46
2017-12-16T09:35:10.908Z,97274.00
2017-12-16T09:36:13.993Z,97274.43
2017-12-16T09:37:16.977Z,97282.28
2017-12-16T09:38:20.426Z,97281.07
2017-12-16T09:39:23.410Z,97282.23
2017-12-16T09:40:26.449Z,97274.71
2017-12-16T09:41:29.530Z,97278.20
2017-12-16T09:42:32.557Z,97280.03
2017-12-16T09:43:35.533Z,97285.81
2017-12-16T09:44:38.853Z,97286.59
2017-12-16T09:45:43.251Z,97290.20
2017-12-16T09:46:47.320Z,97288.98
2017-12-16T09:47:50.376Z,97291.11
2017-12-16T09:48:53.292Z,97286.53
2017-12-16T09:49:56.627Z,97285.91
2017-12-16T09:50:59.823Z,97292.44
2017-12-16T09:52:02.781Z,97291.83
2017-12-16T09:53:05.722Z,97285.52
2017-12-16T09:54:08.709Z,97287.16
2017-12-16T09:55:11.592Z,97292.70
2017-12-16T09:56:15.677Z,97281.47
2017-12-16T09:57:18.916Z,97275.92
2017-12-16T09:58:21.855Z,97293.42
2017-12-16T09:59:24.705Z,97287.56
2017-12-16T10:00:27.610Z,97286.07
2017-12-16T10:01:30.489Z,97282.09
2017-12-16T10:02:33.587Z,97282.88
2017-12-16T10:03:37.189Z,97285.52
2017-12-16T10:04:40.301Z,97282.09
2017-12-16T10:05:43.582Z,97284.03
2017-12-16T10:06:46.830Z,97286.73
2017-12-16T10:07:49.848Z,97289.69
2017-12-16T10:08:52.886Z,97295.80
2017-12-16T10:09:56.216Z,97293.98
2017-12-16T10:10:59.725Z,97291.53
2017-12-16T10:12:02.637Z,97296.28
2017-12-16T10:13:05.689Z,97293.95
2017-12-16T10:14:08.663Z,97296.27
2017-12-16T10:15:12.449Z,97292.41
2017-12-16T10:16:15.932Z,97290.19
2017-12-16T10:17:19.335Z,97293.53
2017-12-16T10:18:22.397Z,97303.11
2017-12-16T10:19:27.129Z,97302.93
2017-12-16T10:20:30.531Z,97304.45
2017-12-16T10:21:34.068Z,97310.75
2017-12-16T10:22:37.194Z,97303.87
2017-12-16T10:23:40.346Z,97303.78
2017-12-16T10:24:43.426Z,97308.65
2017-12-16T10:25:47.330Z,97311.45
2017-12-16T10:26:51.012Z,97316.34
2017-12-16T10:27:55.224Z,97316.54
2017-12-16T10:28:59.970Z,97317.69
2017-12-16T10:30:04.303Z,97318.07
2017-12-16T10:31:08.325Z,97322.71
2017-12-16T10:32:11.425Z,97318.86
2017-12-16T10:33:14.603Z,97314.05
2017-12-16T10:34:18.299Z,97323.94
2017-12-16T10:35:21.906Z,97327.27
2017-12-16T10:36:25.696Z,97322.62
2017-12-16T10:37:30.234Z,97324.95
2017-12-16T10:38:33.315Z,97325.45
2017-12-16T10:39:36.547Z,97330.05
2017-12-16T10:40:40.870Z,97329.84
2017-12-16T10:41:45.004Z,97325.55
2017-12-16T10:42:50.982Z,97326.88
2017-12-16T10:43:55.569Z,97329.77
2017-12-16T10:44:59.365Z,97319.46
2017-12-16T10:46:03.579Z,97330.95
2017-12-16T10:47:08.373Z,97328.62
2017-12-16T10:48:12.171Z,97324.67
2017-12-16T10:49:16.657Z,97326.28
2017-12-16T10:50:20.055Z,97328.64
2017-12-16T10:51:23.043Z,97326.20
2017-12-16T10:52:26.141Z,97324.14
2017-12-16T10:53:29.966Z,97323.36
2017-12-16T10:54:33.358Z,97323.75
2017-12-16T10:55:36.927Z,97328.83
2017-12-16T10:56:41.557Z,97330.56
2017-12-16T10:57:46.685Z,97326.74
2017-12-16T10:58:50.858Z,97329.95
2017-12-16T10:59:56.382Z,97324.45
2017-12-16T11:01:02.271Z,97330.64
2017-12-16T11:02:06.196Z,97330.74
2017-12-16T11:03:09.804Z,97321.50
2017-12-16T11:04:13.003Z,97327.24
2017-12-16T11:05:17.542Z,97334.11
2017-12-16T11:06:22.219Z,97330.91
2017-12-16T11:07:26.547Z,97328.91
2017-12-16T11:08:29.793Z,97335.45
2017-12-16T11:09:33.809Z,97337.33
2017-12-16T11:10:37.983Z,97338.09
2017-12-16T11:11:41.741Z,97340.20
2017-12-16T11:12:47.404Z,97338.09
2017-12-16T11:13:52.850Z,97346.39
2017-12-16T11:14:56.322Z,97340.59
2017-12-16T11:15:59.780Z,97346.30
2017-12-16T11:17:03.943Z,97343.73
2017-12-16T11:18:08.929Z,97351.45
2017-12-16T11:19:12.018Z,97351.91
2017-12-16T11:20:15.401Z,97356.96
2017-12-16T11:21:18.619Z,97349.77
2017-12-16T11:22:22.475Z,97352.78
2017-12-16T11:23:26.749Z,97351.70
2017-12-16T11:24:31.060Z,97335.95
2017-12-16T11:25:34.699Z,97338.88
2017-12-16T11:26:37.680Z,97342.92
2017-12-16T11:27:41.178Z,97352.17
2017-12-16T11:28:45.463Z,97355.05
2017-12-16T11:29:49.770Z,97354.55
2017-12-16T11:30:53.464Z,97362.95
2017-12-16T11:31:57.199Z,97358.48
2017-12-16T11:33:01.938Z,97355.53
2017-12-16T11:34:06.732Z,97359.97
2017-12-16T11:35:11.285Z,97365.45
2017-12-16T11:36:15.266Z,97357.95
2017-12-16T11:37:19.135Z,97368.04
2017-12-16T11:38:23.661Z,97363.23
2017-12-16T11:39:27.195Z,97368.27
2017-12-16T11:40:31.886Z,97358.44
2017-12-16T11:41:37.933Z,97369.98
2017-12-16T11:42:41.380Z,97362.66
2017-12-16T11:43:46.852Z,97369.99
2017-12-16T11:44:50.808Z,97375.95
2017-12-16T11:45:55.112Z,97371.06
2017-12-16T11:47:00.398Z,97371.11
2017-12-16T11:48:04.032Z,97363.48
2017-12-16T11:49:08.184Z,97378.08
2017-12-16T11:50:12.778Z,97369.97
2017-12-16T11:51:16.838Z,97362.22
2017-12-16T11:52:21.104Z,97370.52
2017-12-16T11:53:25.481Z,97378.23
2017-12-16T11:54:30.638Z,97376.53
2017-12-16T11:55:35.545Z,97378.99
2017-12-16T11:56:40.173Z,97377.54
2017-12-16T11:57:44.501Z,97366.53
2017-12-16T11:58:49.398Z,97379.44
2017-12-16T11:59:52.520Z,97377.17
2017-12-16T12:00:58.746Z,97376.73
2017-12-16T12:02:03.881Z,97383.48
2017-12-16T12:03:08.315Z,97383.09
2017-12-16T12:04:12.720Z,97370.59
2017-12-16T12:05:17.640Z,97377.30
2017-12-16T12:06:21.863Z,97382.71
2017-12-16T12:07:27.092Z,97379.82
2017-12-16T12:08:32.930Z,97382.38
2017-12-16T12:09:38.037Z,97374.67
2017-12-16T12:10:43.163Z,97380.86
2017-12-16T12:11:47.983Z,97387.59
2017-12-16T12:12:53.412Z,97381.17
2017-12-16T12:13:57.380Z,97380.00
2017-12-16T12:15:03.273Z,97386.94
2017-12-16T12:16:07.525Z,97380.39
2017-12-16T12:17:12.491Z,97380.00
2017-12-16T12:18:17.697Z,97381.92
2017-12-16T12:19:22.843Z,97390.88
2017-12-16T12:20:27.672Z,97387.38
2017-12-16T12:21:33.363Z,97381.98
2017-12-16T12:22:38.851Z,97387.33
2017-12-16T12:23:44.346Z,97388.03